createdAt,value
2019-04-07T00:00:36.092Z,78.70
2019-04-07T00:05:41.472Z,79.30
2019-04-07T00:10:46.872Z,79.00
2019-04-07T00:15:51.972Z,79.80
2019-04-07T00:20:56.737Z,80.00
2019-04-07T00:26:02.218Z,80.40
2019-04-07T00:31:07.095Z,80.60
2019-04-07T00:36:11.853Z,81.00
2019-04-07T00:41:16.746Z,81.10
2019-04-07T00:46:21.850Z,81.10
2019-04-07T00:51:26.760Z,80.70
2019-04-07T00:56:31.843Z,81.20
2019-04-07T01:01:37.181Z,81.10
2019-04-07T01:06:42.254Z,82.00
2019-04-07T01:11:47.443Z,81.70
2019-04-07T01:16:52.951Z,81.80
2019-04-07T01:21:58.993Z,81.70
2019-04-07T01:27:05.072Z,82.00
2019-04-07T01:32:10.318Z,82.70
2019-04-07T01:37:15.560Z,83.00
2019-04-07T01:42:25.576Z,83.30
2019-04-07T01:47:32.302Z,82.60
2019-04-07T01:52:53.580Z,83.40
2019-04-07T01:58:06.340Z,84.10
2019-04-07T02:03:13.216Z,84.20
2019-04-07T02:13:47.438Z,84.00
2019-04-07T02:19:02.850Z,84.90
2019-04-07T02:24:13.122Z,85.00
2019-04-07T02:29:35.897Z,85.30
2019-04-07T02:34:45.538Z,85.50
2019-04-07T02:39:52.350Z,85.30
2019-04-07T02:45:15.278Z,85.50
2019-04-07T02:50:27.757Z,85.80
2019-04-07T02:55:34.244Z,86.30
2019-04-07T03:00:57.735Z,87.00
2019-04-07T03:06:37.481Z,87.00
2019-04-07T03:11:31.389Z,87.00
2019-04-07T03:16:41.688Z,87.10
2019-04-07T03:22:03.692Z,87.00
2019-04-07T03:27:28.469Z,87.30
2019-04-07T03:32:54.081Z,87.20
2019-04-07T03:38:18.784Z,88.00
2019-04-07T03:43:31.731Z,88.20
2019-04-07T03:48:44.521Z,87.80
2019-04-07T03:53:56.018Z,88.60
2019-04-07T03:59:11.482Z,89.10
2019-04-07T04:04:18.888Z,89.30
2019-04-07T04:09:42.543Z,89.60
2019-04-07T04:15:01.739Z,89.40
2019-04-07T04:20:08.346Z,89.70
2019-04-07T04:25:13.814Z,90.00
2019-04-07T04:30:18.992Z,90.20
2019-04-07T04:35:24.588Z,90.20
2019-04-07T04:40:29.839Z,90.60
2019-04-07T04:45:36.266Z,90.40
2019-04-07T04:50:42.043Z,90.20
2019-04-07T04:55:47.276Z,90.40
2019-04-07T05:00:52.383Z,90.50
2019-04-07T05:05:57.796Z,90.40
2019-04-07T05:11:03.076Z,90.60
2019-04-07T05:16:08.308Z,90.50
2019-04-07T05:21:13.497Z,90.70
2019-04-07T05:26:18.859Z,90.70
2019-04-07T05:31:23.824Z,91.10
2019-04-07T05:36:28.649Z,92.10
2019-04-07T05:41:33.755Z,92.50
2019-04-07T05:46:42.334Z,92.40
2019-04-07T05:51:45.390Z,92.70
2019-04-07T05:56:50.320Z,91.50
2019-04-07T06:01:59.767Z,90.00
2019-04-07T06:07:01.847Z,88.00
2019-04-07T06:12:09.619Z,87.90
2019-04-07T06:17:13.575Z,84.50
2019-04-07T06:22:20.683Z,79.80
2019-04-07T06:27:24.805Z,78.50
2019-04-07T06:32:29.953Z,77.40
2019-04-07T06:37:36.274Z,75.20
2019-04-07T06:42:43.658Z,72.90
2019-04-07T06:47:59.374Z,71.90
2019-04-07T06:53:20.650Z,70.00
2019-04-07T06:58:38.805Z,70.30
2019-04-07T07:03:59.400Z,68.10
2019-04-07T07:09:15.534Z,67.70
2019-04-07T07:14:34.897Z,66.00
2019-04-07T07:19:55.643Z,64.00
2019-04-07T07:25:01.000Z,64.40
2019-04-07T07:30:07.737Z,64.40
2019-04-07T07:35:15.166Z,62.50
2019-04-07T07:40:19.282Z,61.60
2019-04-07T07:45:24.119Z,60.90
2019-04-07T07:50:29.917Z,60.90
2019-04-07T07:55:37.631Z,60.40
2019-04-07T08:00:43.336Z,59.60
2019-04-07T08:05:48.705Z,57.00
2019-04-07T08:10:56.166Z,56.90
2019-04-07T08:16:00.550Z,56.10
2019-04-07T08:21:05.650Z,55.40
2019-04-07T08:26:11.733Z,55.90
2019-04-07T08:31:21.105Z,52.60
2019-04-07T08:36:23.879Z,53.80
2019-04-07T08:41:28.874Z,51.80
2019-04-07T08:46:38.636Z,51.50
2019-04-07T08:51:40.423Z,51.30
2019-04-07T08:56:45.757Z,50.40
2019-04-07T09:01:52.782Z,50.10
2019-04-07T09:07:00.692Z,48.80
2019-04-07T09:12:03.888Z,49.10
2019-04-07T09:17:10.561Z,47.40
2019-04-07T09:22:32.741Z,47.30
2019-04-07T09:27:55.804Z,48.00
2019-04-07T09:33:05.961Z,47.30
2019-04-07T09:38:30.805Z,45.90
2019-04-07T09:43:46.515Z,46.20
2019-04-07T09:48:58.825Z,47.90
2019-04-07T09:54:08.201Z,46.00
2019-04-07T09:59:31.859Z,45.20
2019-04-07T10:04:54.804Z,44.60
2019-04-07T10:10:17.409Z,45.60
2019-04-07T10:15:24.523Z,44.90
2019-04-07T10:20:47.335Z,43.90
2019-04-07T10:25:57.247Z,43.60
2019-04-07T10:31:09.668Z,41.90
2019-04-07T10:36:22.788Z,41.70
2019-04-07T10:41:29.509Z,41.40
2019-04-07T10:46:52.185Z,41.90
2019-04-07T10:51:59.302Z,42.80
2019-04-07T10:57:06.548Z,40.20
2019-04-07T11:02:15.572Z,40.90
2019-04-07T11:07:28.208Z,40.80
2019-04-07T11:12:41.232Z,38.70
2019-04-07T11:18:04.476Z,39.10
2019-04-07T11:23:10.894Z,39.80
2019-04-07T11:28:20.835Z,39.70
2019-04-07T11:33:27.835Z,40.20
2019-04-07T11:38:46.832Z,38.80
2019-04-07T11:43:56.416Z,38.60
2019-04-07T11:49:19.401Z,37.90
2019-04-07T11:54:26.297Z,39.00
2019-04-07T11:59:51.279Z,40.80
2019-04-07T12:05:08.131Z,36.40
2019-04-07T12:10:33.194Z,37.80
2019-04-07T12:15:43.015Z,36.50
2019-04-07T12:20:56.257Z,37.30
2019-04-07T12:26:20.404Z,36.00
2019-04-07T12:31:36.179Z,35.60
2019-04-07T12:37:02.403Z,36.70
2019-04-07T12:42:13.565Z,34.40
2019-04-07T12:47:36.616Z,36.30
2019-04-07T12:52:43.085Z,35.00
2019-04-07T12:58:10.795Z,32.80
2019-04-07T13:03:33.183Z,36.50
2019-04-07T13:08:40.379Z,34.50
2019-04-07T13:13:53.099Z,30.30
2019-04-07T13:19:04.253Z,32.30
2019-04-07T13:24:12.920Z,34.70
2019-04-07T13:29:18.877Z,34.00
2019-04-07T13:34:41.731Z,33.80
2019-04-07T13:40:10.142Z,34.10
2019-04-07T13:45:24.777Z,35.00
2019-04-07T13:50:48.188Z,35.20
2019-04-07T13:56:16.657Z,35.10
2019-04-07T14:01:23.294Z,36.40
2019-04-07T14:06:32.869Z,36.30
2019-04-07T14:11:53.809Z,34.20
2019-04-07T14:17:06.286Z,34.10
2019-04-07T14:22:16.669Z,33.90
2019-04-07T14:27:38.433Z,34.60
2019-04-07T14:32:53.598Z,34.80
2019-04-07T14:38:03.710Z,34.20
2019-04-07T14:43:19.096Z,35.00
2019-04-07T14:48:34.805Z,34.40
2019-04-07T14:53:44.201Z,34.10
2019-04-07T14:58:53.922Z,35.70
2019-04-07T15:03:59.947Z,35.10
2019-04-07T15:09:10.649Z,34.80
2019-04-07T15:14:15.694Z,34.20
2019-04-07T15:19:20.483Z,34.50
2019-04-07T15:24:25.979Z,34.50
2019-04-07T15:29:31.080Z,34.80
2019-04-07T15:34:39.558Z,33.80
2019-04-07T15:39:42.781Z,34.80
2019-04-07T15:44:48.407Z,35.50
2019-04-07T15:49:54.082Z,34.60
2019-04-07T15:55:11.575Z,34.30
2019-04-07T16:00:19.530Z,34.70
2019-04-07T16:05:24.552Z,35.20
2019-04-07T16:10:30.168Z,36.10
2019-04-07T16:15:35.979Z,36.10
2019-04-07T16:20:41.695Z,36.40
2019-04-07T16:25:47.443Z,37.10
2019-04-07T16:30:52.493Z,37.60
2019-04-07T16:35:57.978Z,38.10
2019-04-07T16:41:02.945Z,38.50
2019-04-07T16:46:07.797Z,38.90
2019-04-07T16:51:13.415Z,39.50
2019-04-07T16:56:20.107Z,40.20
2019-04-07T17:01:25.730Z,40.90
2019-04-07T17:06:34.670Z,40.80
2019-04-07T17:11:40.718Z,41.40
2019-04-07T17:16:45.619Z,42.40
2019-04-07T17:21:51.825Z,43.80
2019-04-07T17:26:58.522Z,44.50
2019-04-07T17:32:06.027Z,44.70
2019-04-07T17:37:11.766Z,45.80
2019-04-07T17:42:20.171Z,46.20
2019-04-07T17:47:39.689Z,47.20
2019-04-07T17:53:03.059Z,48.30
2019-04-07T17:58:26.304Z,49.40
2019-04-07T18:03:39.077Z,52.00
2019-04-07T18:09:07.855Z,53.80
2019-04-07T18:14:15.856Z,54.90
2019-04-07T18:19:38.824Z,54.30
2019-04-07T18:24:48.701Z,55.90
2019-04-07T18:29:59.669Z,56.20
2019-04-07T18:35:20.066Z,56.50
2019-04-07T18:40:41.396Z,55.50
2019-04-07T18:45:49.086Z,56.30
2019-04-07T18:50:56.362Z,57.20
2019-04-07T18:56:09.850Z,58.80
2019-04-07T19:01:17.024Z,58.50
2019-04-07T19:06:23.715Z,59.00
2019-04-07T19:11:48.638Z,59.70
2019-04-07T19:17:11.518Z,60.60
2019-04-07T19:22:36.662Z,60.80
2019-04-07T19:28:02.371Z,61.60
2019-04-07T19:33:06.790Z,62.90
2019-04-07T19:38:27.352Z,63.60
2019-04-07T19:43:46.196Z,64.60
2019-04-07T19:48:52.693Z,64.70
2019-04-07T19:54:00.682Z,65.20
2019-04-07T19:59:19.592Z,66.00
2019-04-07T20:04:40.163Z,66.70
2019-04-07T20:10:03.103Z,67.50
2019-04-07T20:15:29.583Z,67.30
2019-04-07T20:20:42.036Z,64.30
2019-04-07T20:25:55.627Z,63.30
2019-04-07T20:31:09.092Z,63.50
2019-04-07T20:36:22.145Z,63.60
2019-04-07T20:41:23.962Z,63.60
2019-04-07T20:46:46.834Z,63.90
2019-04-07T20:52:11.289Z,64.40
2019-04-07T20:57:34.165Z,65.20
2019-04-07T21:02:46.481Z,65.60
2019-04-07T21:08:09.103Z,65.00
2019-04-07T21:13:24.876Z,64.70
2019-04-07T21:18:40.732Z,64.20
2019-04-07T21:23:48.025Z,63.70
2019-04-07T21:28:54.812Z,63.90
2019-04-07T21:34:07.001Z,64.60
2019-04-07T21:39:14.262Z,66.10
2019-04-07T21:44:28.535Z,66.10
2019-04-07T21:49:43.968Z,67.10
2019-04-07T21:54:55.598Z,68.00
2019-04-07T22:00:09.207Z,69.10
2019-04-07T22:05:25.958Z,70.30
2019-04-07T22:10:31.899Z,70.90
2019-04-07T22:15:45.819Z,70.80
2019-04-07T22:20:51.263Z,71.00
2019-04-07T22:25:54.734Z,71.80
2019-04-07T22:30:59.572Z,72.10
2019-04-07T22:36:04.400Z,72.40
2019-04-07T22:41:10.139Z,73.20
2019-04-07T22:46:19.520Z,73.50
2019-04-07T22:51:21.421Z,73.20
2019-04-07T22:56:26.259Z,73.70
2019-04-07T23:01:31.348Z,72.60
2019-04-07T23:06:36.354Z,73.10
2019-04-07T23:11:41.106Z,73.70
2019-04-07T23:16:46.457Z,74.00
2019-04-07T23:21:51.821Z,74.60
2019-04-07T23:26:56.470Z,77.00
2019-04-07T23:32:03.943Z,78.10
2019-04-07T23:37:08.887Z,78.40
2019-04-07T23:42:14.466Z,78.80
2019-04-07T23:47:19.536Z,79.10
2019-04-07T23:52:25.138Z,79.20
2019-04-07T23:57:30.258Z,78.60
